Amarant — CQSF — position and weather

sailwx.info

Track history (hours):
 
Tides and Currents Weather Stations Pressure Air Temp Water Temp Dewpoint Dewpoint Depression Visibility Wind Speed Wind Dir Waves Ship Positions

Amarant

Last reported at 2016-Aug-26 19:33 UTC. Time now 2016-Aug-26 19:58 UTC.
Position N 53°57' E 007°06'.

Length 123 m; draft 6.4 m.

Type: Tanker. MMSI: 255623000.

Date/timePositionNaut miles runAvg speedWind from/ knotsBaromVisibWave heightAir tempDewpointWater temp
2016-Aug-26 19:33N 53°57' E 007°06'1414.3
2016-Aug-26 18:33N 54°00' E 007°29'1413.6
2016-Aug-26 17:33N 54°01' E 007°52'1413.4
2016-Aug-26 16:33N 54°00' E 008°15'1211.9
2016-Aug-26 15:33N 53°58' E 008°35'1111.0
2016-Aug-26 14:34N 53°50' E 008°49'1212.1
2016-Aug-26 13:33N 53°54' E 009°09'0 0.2
2016-Aug-26 12:34N 53°54' E 009°09'7 6.8
2016-Aug-26 11:34N 53°59' E 009°17'7 7.1
2016-Aug-26 10:33N 54°06' E 009°20'9 6.1
2016-Aug-26 09:03N 54°12' E 009°32'5 7.8
2016-Aug-26 08:26N 54°15' E 009°37'9 7.9
2016-Aug-26 07:14N 54°22' E 009°49'6 8.2
2016-Aug-26 06:33N 54°21' E 009°58'6 3.2
2016-Aug-26 04:33N 54°22' E 010°09'7 6.8
2016-Aug-26 03:33N 54°28' E 010°15'1212.5
2016-Aug-26 02:33N 54°34' E 010°33'1414.0
2016-Aug-26 01:33N 54°36' E 010°57'1414.5
2016-Aug-26 00:33N 54°33' E 011°22'1514.7
2016-Aug-25 23:34N 54°27' E 011°44'1414.4
2016-Aug-25 22:33N 54°27' E 012°09'1413.6
2016-Aug-25 21:33N 54°39' E 012°21'1414.1
2016-Aug-25 20:33N 54°47' E 012°41'1414.1
2016-Aug-25 19:33N 54°52' E 013°04'1414.2
2016-Aug-25 18:33N 54°57' E 013°27'1414.1
2016-Aug-25 17:33N 55°01' E 013°50'1313.4
2016-Aug-25 16:33N 55°09' E 014°10'1413.9
2016-Aug-25 15:33N 55°20' E 014°25'1413.7
2016-Aug-25 14:33N 55°29' E 014°42'1413.8
2016-Aug-25 13:34N 55°36' E 015°03'1413.7
2016-Aug-25 12:33N 55°43' E 015°25'7113.0
2016-Aug-25 07:05N 56°32' E 016°56'7814.1
2016-Aug-25 01:33N 57°48' E 017°31'4513.9
2016-Aug-24 22:18N 58°32' E 017°50'1013.7
2016-Aug-24 21:33N 58°42' E 017°52'  
2016-Aug-20 13:19N 55°42' E 015°36'1113.9
2016-Aug-20 12:33N 55°37' E 015°20'1413.7
2016-Aug-20 11:33N 55°30' E 014°59'1413.6
2016-Aug-20 10:33N 55°23' E 014°39'1313.4
2016-Aug-20 09:33N 55°12' E 014°24'1312.8
2016-Aug-20 08:33N 55°10' E 014°02'1413.7
2016-Aug-20 07:34N 55°10' E 013°38'1313.5
2016-Aug-20 06:33N 55°10' E 013°15'1313.1
2016-Aug-20 05:33N 55°14' E 012°53'1111.1
2016-Aug-20 04:33N 55°21' E 012°38'1212.0
2016-Aug-20 03:33N 55°33' E 012°42'9 8.7
2016-Aug-20 02:33N 55°41' E 012°41'1111.1
2016-Aug-20 01:33N 55°53' E 012°40'1211.6
2016-Aug-20 00:33N 56°04' E 012°37'1212.1
2016-Aug-19 23:33N 56°12' E 012°21'2713.5
2016-Aug-19 21:33N 56°39' E 012°09'1413.8
2016-Aug-19 20:34N 56°52' E 012°03'1413.8
2016-Aug-19 19:33N 57°05' E 011°56'1413.8
2016-Aug-19 18:33N 57°18' E 011°49'1413.6
2016-Aug-19 17:33N 57°31' E 011°39'1010.4
2016-Aug-19 16:34N 57°40' E 011°48'0 0.0
2016-Aug-19 15:33N 57°40' E 011°48'0 0.0
2016-Aug-19 14:33N 57°40' E 011°48'0 0.0
2016-Aug-19 13:33N 57°40' E 011°48'0 0.0
2016-Aug-19 12:33N 57°40' E 011°48'0 0.0
2016-Aug-19 11:33N 57°40' E 011°48'0 0.0
2016-Aug-19 10:33N 57°40' E 011°48'0 0.0
2016-Aug-19 09:33N 57°40' E 011°48'0 0.0
2016-Aug-19 08:33N 57°40' E 011°48'0 0.0
2016-Aug-19 07:33N 57°40' E 011°48'0 0.0
2016-Aug-19 06:33N 57°40' E 011°48'0 0.1
2016-Aug-19 05:33N 57°40' E 011°48'0 0.1
2016-Aug-19 04:33N 57°40' E 011°48'0 0.0
2016-Aug-19 03:33N 57°40' E 011°48'0 0.0
2016-Aug-19 02:33N 57°40' E 011°48'0 0.0
2016-Aug-19 01:33N 57°40' E 011°48'0 0.0
2016-Aug-19 00:33N 57°40' E 011°48'0 0.0
2016-Aug-18 23:33N 57°40' E 011°48'0 0.0
2016-Aug-18 22:33N 57°40' E 011°48'0 0.0
2016-Aug-18 21:33N 57°40' E 011°48'0 0.0
2016-Aug-18 20:33N 57°40' E 011°48'0 0.0
2016-Aug-18 19:33N 57°40' E 011°48'0 0.0
2016-Aug-18 18:33N 57°40' E 011°48'0 0.0
2016-Aug-18 17:33N 57°40' E 011°48'0 0.0
2016-Aug-18 16:33N 57°40' E 011°48'0 0.0
2016-Aug-18 15:33N 57°40' E 011°48'0 0.0
2016-Aug-18 14:33N 57°40' E 011°48'0 0.0
2016-Aug-18 13:33N 57°40' E 011°48'3 2.7
2016-Aug-18 12:33N 57°41' E 011°52'1 0.5
2016-Aug-18 11:32N 57°41' E 011°53'0 0.0
2016-Aug-18 10:32N 57°41' E 011°53'0 0.0
2016-Aug-18 09:32N 57°41' E 011°53'0 0.0
2016-Aug-18 08:32N 57°41' E 011°53'0 0.0
2016-Aug-18 07:32N 57°41' E 011°53'0 0.0
2016-Aug-18 06:32N 57°41' E 011°53'0 0.0
2016-Aug-18 05:32N 57°41' E 011°53'0 0.0
2016-Aug-18 04:32N 57°41' E 011°53'0 0.0
2016-Aug-18 03:32N 57°41' E 011°53'0 0.0
2016-Aug-18 02:32N 57°41' E 011°53'0 0.0
2016-Aug-18 01:32N 57°41' E 011°53'0 0.0
2016-Aug-18 00:32N 57°41' E 011°53'0 0.0
2016-Aug-17 23:32N 57°41' E 011°53'0 0.0
2016-Aug-17 22:32N 57°41' E 011°53'0 0.0
2016-Aug-17 21:32N 57°41' E 011°53'0 0.0
2016-Aug-17 20:32N 57°41' E 011°53'0 0.0
2016-Aug-17 19:32N 57°41' E 011°53'0 0.0
2016-Aug-17 18:32N 57°41' E 011°53'0 0.0
2016-Aug-17 17:32N 57°41' E 011°53'0 0.0
2016-Aug-17 16:32N 57°41' E 011°53'0 0.5
2016-Aug-17 15:32N 57°41' E 011°52'0 0.0
2016-Aug-17 14:32N 57°41' E 011°52'0 0.0
2016-Aug-17 13:32N 57°41' E 011°52'0 0.0
2016-Aug-17 12:32N 57°41' E 011°52'0 0.0
2016-Aug-17 11:32N 57°41' E 011°52'0 0.0
2016-Aug-17 10:32N 57°41' E 011°52'0 0.0
2016-Aug-17 09:32N 57°41' E 011°52'0 0.0
2016-Aug-17 08:32N 57°41' E 011°52'0 0.0
2016-Aug-17 07:32N 57°41' E 011°52'0 0.0
2016-Aug-17 06:32N 57°41' E 011°52'0 0.0
2016-Aug-17 05:32N 57°42' E 011°52'0 0.0
2016-Aug-17 04:32N 57°41' E 011°52'0 0.0
2016-Aug-17 03:32N 57°41' E 011°52'0 0.0
2016-Aug-17 02:32N 57°41' E 011°52'0 0.0
2016-Aug-17 01:32N 57°41' E 011°52'0 0.0
2016-Aug-17 00:32N 57°41' E 011°52'0 0.0
2016-Aug-16 23:32N 57°41' E 011°52'0 0.0
2016-Aug-16 22:32N 57°41' E 011°52'0 0.0
2016-Aug-16 21:32N 57°41' E 011°52'0 0.0
2016-Aug-16 20:32N 57°41' E 011°52'  
Track history (hours):
 
Tides and Currents Weather Stations Pressure Air Temp Water Temp Dewpoint Dewpoint Depression Visibility Wind Speed Wind Dir Waves Ship Positions

Amarant

Last reported at 2016-Aug-26 19:33 UTC. Time now 2016-Aug-26 19:58 UTC.
Position N 53°57' E 007°06'.

Length 123 m; draft 6.4 m.

Type: Tanker. MMSI: 255623000.

Date/timePositionNaut miles runAvg speedWind from/ knotsBaromVisibWave heightAir tempDewpointWater temp
2016-Aug-26 19:33N 53°57' E 007°06'1414.3
2016-Aug-26 18:33N 54°00' E 007°29'1413.6
2016-Aug-26 17:33N 54°01' E 007°52'1413.4
2016-Aug-26 16:33N 54°00' E 008°15'1211.9
2016-Aug-26 15:33N 53°58' E 008°35'1111.0
2016-Aug-26 14:34N 53°50' E 008°49'1212.1
2016-Aug-26 13:33N 53°54' E 009°09'0 0.2
2016-Aug-26 12:34N 53°54' E 009°09'7 6.8
2016-Aug-26 11:34N 53°59' E 009°17'7 7.1
2016-Aug-26 10:33N 54°06' E 009°20'9 6.1
2016-Aug-26 09:03N 54°12' E 009°32'5 7.8
2016-Aug-26 08:26N 54°15' E 009°37'9 7.9
2016-Aug-26 07:14N 54°22' E 009°49'6 8.2
2016-Aug-26 06:33N 54°21' E 009°58'6 3.2
2016-Aug-26 04:33N 54°22' E 010°09'7 6.8
2016-Aug-26 03:33N 54°28' E 010°15'1212.5
2016-Aug-26 02:33N 54°34' E 010°33'1414.0
2016-Aug-26 01:33N 54°36' E 010°57'1414.5
2016-Aug-26 00:33N 54°33' E 011°22'1514.7
2016-Aug-25 23:34N 54°27' E 011°44'1414.4
2016-Aug-25 22:33N 54°27' E 012°09'1413.6
2016-Aug-25 21:33N 54°39' E 012°21'1414.1
2016-Aug-25 20:33N 54°47' E 012°41'1414.1
2016-Aug-25 19:33N 54°52' E 013°04'1414.2
2016-Aug-25 18:33N 54°57' E 013°27'1414.1
2016-Aug-25 17:33N 55°01' E 013°50'1313.4
2016-Aug-25 16:33N 55°09' E 014°10'1413.9
2016-Aug-25 15:33N 55°20' E 014°25'1413.7
2016-Aug-25 14:33N 55°29' E 014°42'1413.8
2016-Aug-25 13:34N 55°36' E 015°03'1413.7
2016-Aug-25 12:33N 55°43' E 015°25'7113.0
2016-Aug-25 07:05N 56°32' E 016°56'7814.1
2016-Aug-25 01:33N 57°48' E 017°31'4513.9
2016-Aug-24 22:18N 58°32' E 017°50'1013.7
2016-Aug-24 21:33N 58°42' E 017°52'  
2016-Aug-20 13:19N 55°42' E 015°36'1113.9
2016-Aug-20 12:33N 55°37' E 015°20'1413.7
2016-Aug-20 11:33N 55°30' E 014°59'1413.6
2016-Aug-20 10:33N 55°23' E 014°39'1313.4
2016-Aug-20 09:33N 55°12' E 014°24'1312.8
2016-Aug-20 08:33N 55°10' E 014°02'1413.7
2016-Aug-20 07:34N 55°10' E 013°38'1313.5
2016-Aug-20 06:33N 55°10' E 013°15'1313.1
2016-Aug-20 05:33N 55°14' E 012°53'1111.1
2016-Aug-20 04:33N 55°21' E 012°38'1212.0
2016-Aug-20 03:33N 55°33' E 012°42'9 8.7
2016-Aug-20 02:33N 55°41' E 012°41'1111.1
2016-Aug-20 01:33N 55°53' E 012°40'1211.6
2016-Aug-20 00:33N 56°04' E 012°37'1212.1
2016-Aug-19 23:33N 56°12' E 012°21'2713.5
2016-Aug-19 21:33N 56°39' E 012°09'1413.8
2016-Aug-19 20:34N 56°52' E 012°03'1413.8
2016-Aug-19 19:33N 57°05' E 011°56'1413.8
2016-Aug-19 18:33N 57°18' E 011°49'1413.6
2016-Aug-19 17:33N 57°31' E 011°39'1010.4
2016-Aug-19 16:34N 57°40' E 011°48'0 0.0
2016-Aug-19 15:33N 57°40' E 011°48'0 0.0
2016-Aug-19 14:33N 57°40' E 011°48'0 0.0
2016-Aug-19 13:33N 57°40' E 011°48'0 0.0
2016-Aug-19 12:33N 57°40' E 011°48'0 0.0
2016-Aug-19 11:33N 57°40' E 011°48'0 0.0
2016-Aug-19 10:33N 57°40' E 011°48'0 0.0
2016-Aug-19 09:33N 57°40' E 011°48'0 0.0
2016-Aug-19 08:33N 57°40' E 011°48'0 0.0
2016-Aug-19 07:33N 57°40' E 011°48'0 0.0
2016-Aug-19 06:33N 57°40' E 011°48'0 0.1
2016-Aug-19 05:33N 57°40' E 011°48'0 0.1
2016-Aug-19 04:33N 57°40' E 011°48'0 0.0
2016-Aug-19 03:33N 57°40' E 011°48'0 0.0
2016-Aug-19 02:33N 57°40' E 011°48'0 0.0
2016-Aug-19 01:33N 57°40' E 011°48'0 0.0
2016-Aug-19 00:33N 57°40' E 011°48'0 0.0
2016-Aug-18 23:33N 57°40' E 011°48'0 0.0
2016-Aug-18 22:33N 57°40' E 011°48'0 0.0
2016-Aug-18 21:33N 57°40' E 011°48'0 0.0
2016-Aug-18 20:33N 57°40' E 011°48'0 0.0
2016-Aug-18 19:33N 57°40' E 011°48'0 0.0
2016-Aug-18 18:33N 57°40' E 011°48'0 0.0
2016-Aug-18 17:33N 57°40' E 011°48'0 0.0
2016-Aug-18 16:33N 57°40' E 011°48'0 0.0
2016-Aug-18 15:33N 57°40' E 011°48'0 0.0
2016-Aug-18 14:33N 57°40' E 011°48'0 0.0
2016-Aug-18 13:33N 57°40' E 011°48'3 2.7
2016-Aug-18 12:33N 57°41' E 011°52'1 0.5
2016-Aug-18 11:32N 57°41' E 011°53'0 0.0
2016-Aug-18 10:32N 57°41' E 011°53'0 0.0
2016-Aug-18 09:32N 57°41' E 011°53'0 0.0
2016-Aug-18 08:32N 57°41' E 011°53'0 0.0
2016-Aug-18 07:32N 57°41' E 011°53'0 0.0
2016-Aug-18 06:32N 57°41' E 011°53'0 0.0
2016-Aug-18 05:32N 57°41' E 011°53'0 0.0
2016-Aug-18 04:32N 57°41' E 011°53'0 0.0
2016-Aug-18 03:32N 57°41' E 011°53'0 0.0
2016-Aug-18 02:32N 57°41' E 011°53'0 0.0
2016-Aug-18 01:32N 57°41' E 011°53'0 0.0
2016-Aug-18 00:32N 57°41' E 011°53'0 0.0
2016-Aug-17 23:32N 57°41' E 011°53'0 0.0
2016-Aug-17 22:32N 57°41' E 011°53'0 0.0
2016-Aug-17 21:32N 57°41' E 011°53'0 0.0
2016-Aug-17 20:32N 57°41' E 011°53'0 0.0
2016-Aug-17 19:32N 57°41' E 011°53'0 0.0
2016-Aug-17 18:32N 57°41' E 011°53'0 0.0
2016-Aug-17 17:32N 57°41' E 011°53'0 0.0
2016-Aug-17 16:32N 57°41' E 011°53'0 0.5
2016-Aug-17 15:32N 57°41' E 011°52'0 0.0
2016-Aug-17 14:32N 57°41' E 011°52'0 0.0
2016-Aug-17 13:32N 57°41' E 011°52'0 0.0
2016-Aug-17 12:32N 57°41' E 011°52'0 0.0
2016-Aug-17 11:32N 57°41' E 011°52'0 0.0
2016-Aug-17 10:32N 57°41' E 011°52'0 0.0
2016-Aug-17 09:32N 57°41' E 011°52'0 0.0
2016-Aug-17 08:32N 57°41' E 011°52'0 0.0
2016-Aug-17 07:32N 57°41' E 011°52'0 0.0
2016-Aug-17 06:32N 57°41' E 011°52'0 0.0
2016-Aug-17 05:32N 57°42' E 011°52'0 0.0
2016-Aug-17 04:32N 57°41' E 011°52'0 0.0
2016-Aug-17 03:32N 57°41' E 011°52'0 0.0
2016-Aug-17 02:32N 57°41' E 011°52'0 0.0
2016-Aug-17 01:32N 57°41' E 011°52'0 0.0
2016-Aug-17 00:32N 57°41' E 011°52'0 0.0
2016-Aug-16 23:32N 57°41' E 011°52'0 0.0
2016-Aug-16 22:32N 57°41' E 011°52'0 0.0
2016-Aug-16 21:32N 57°41' E 011°52'0 0.0
2016-Aug-16 20:32N 57°41' E 011°52'  

Dump ship's entire track history